createdAt,value
2018-11-27T00:01:28.528Z,13.77
2018-11-27T00:04:16.354Z,13.87
2018-11-27T00:07:03.927Z,13.83
2018-11-27T00:09:51.491Z,13.80
2018-11-27T00:12:39.336Z,13.93
2018-11-27T00:15:26.910Z,14.03
2018-11-27T00:18:14.521Z,13.77
2018-11-27T00:21:02.075Z,13.47
2018-11-27T00:23:49.647Z,13.50
2018-11-27T00:26:37.201Z,14.80
2018-11-27T00:29:25.024Z,13.27
2018-11-27T00:32:12.576Z,14.30
2018-11-27T00:35:00.157Z,14.87
2018-11-27T00:37:47.719Z,13.63
2018-11-27T00:40:35.598Z,13.43
2018-11-27T00:43:23.103Z,13.80
2018-11-27T00:46:10.691Z,13.33
2018-11-27T00:48:58.271Z,13.90
2018-11-27T00:51:45.828Z,14.00
2018-11-27T00:54:33.653Z,14.07
2018-11-27T00:57:01.752Z,13.23
2018-11-27T00:59:49.330Z,14.37
2018-11-27T01:02:36.918Z,13.33
2018-11-27T01:05:24.775Z,13.33
2018-11-27T01:08:12.329Z,13.40
2018-11-27T01:10:59.899Z,13.17
2018-11-27T01:13:47.472Z,14.93
2018-11-27T01:16:35.025Z,13.93
2018-11-27T01:19:22.598Z,14.27
2018-11-27T01:22:10.165Z,14.47
2018-11-27T01:24:57.735Z,13.77
2018-11-27T01:27:45.302Z,12.50
2018-11-27T01:30:32.923Z,13.70
2018-11-27T01:33:20.474Z,13.90
2018-11-27T01:36:08.312Z,13.77
2018-11-27T01:41:49.951Z,13.50
2018-11-27T01:44:37.812Z,13.73
2018-11-27T01:47:25.362Z,13.13
2018-11-27T01:50:13.351Z,12.77
2018-11-27T01:53:00.904Z,12.07
2018-11-27T01:55:48.473Z,13.10
2018-11-27T01:58:36.053Z,13.57
2018-11-27T02:01:23.637Z,11.53
2018-11-27T02:07:05.222Z,12.07
2018-11-27T02:09:52.793Z,12.50
2018-11-27T02:12:40.910Z,11.47
2018-11-27T02:15:28.747Z,11.03
2018-11-27T02:18:16.302Z,12.33
2018-11-27T02:21:04.138Z,13.13
2018-11-27T02:23:51.710Z,10.60
2018-11-27T02:26:39.365Z,10.90
2018-11-27T02:29:26.943Z,11.83
2018-11-27T02:32:14.758Z,11.27
2018-11-27T02:35:02.325Z,11.50
2018-11-27T02:37:50.384Z,10.33
2018-11-27T02:40:37.976Z,9.60
2018-11-27T02:43:25.559Z,9.80
2018-11-27T02:46:13.138Z,9.90
2018-11-27T02:49:00.702Z,9.93
2018-11-27T02:51:48.300Z,9.37
2018-11-27T02:54:35.884Z,9.30
2018-11-27T02:57:23.505Z,8.43
2018-11-27T03:00:30.491Z,9.33
2018-11-27T03:03:18.048Z,9.17
2018-11-27T03:06:05.672Z,9.50
2018-11-27T03:08:53.220Z,7.97
2018-11-27T03:11:40.800Z,9.90
2018-11-27T03:14:28.647Z,8.80
2018-11-27T03:17:16.208Z,8.67
2018-11-27T03:20:03.798Z,8.90
2018-11-27T03:22:51.375Z,9.57
2018-11-27T03:25:39.231Z,9.50
2018-11-27T03:28:27.043Z,9.50
2018-11-27T03:31:14.608Z,8.87
2018-11-27T03:33:55.115Z,8.97
2018-11-27T03:36:35.581Z,9.83
2018-11-27T03:39:15.754Z,10.33
2018-11-27T03:41:56.117Z,8.97
2018-11-27T03:44:36.411Z,9.00
2018-11-27T03:47:17.407Z,8.97
2018-11-27T03:49:58.224Z,10.30
2018-11-27T03:52:38.607Z,9.37
2018-11-27T03:55:18.718Z,8.83
2018-11-27T03:57:59.431Z,7.87
2018-11-27T04:00:39.729Z,8.33
2018-11-27T04:03:20.628Z,8.20
2018-11-27T04:06:00.989Z,9.03
2018-11-27T04:08:41.907Z,8.57
2018-11-27T04:11:22.699Z,8.53
2018-11-27T04:14:02.894Z,9.27
2018-11-27T04:16:43.098Z,9.53
2018-11-27T04:19:23.409Z,9.67
2018-11-27T04:22:03.549Z,9.00
2018-11-27T04:24:43.823Z,9.43
2018-11-27T04:27:24.068Z,9.90
2018-11-27T04:29:52.444Z,9.93
2018-11-27T04:32:40.055Z,10.63
2018-11-27T04:35:27.629Z,9.63
2018-11-27T04:38:15.180Z,9.23
2018-11-27T04:41:02.754Z,10.40
2018-11-27T04:43:50.341Z,10.60
2018-11-27T04:46:37.918Z,10.50
2018-11-27T04:49:25.469Z,10.10
2018-11-27T04:52:13.043Z,9.87
2018-11-27T04:55:00.596Z,8.83
2018-11-27T04:57:48.622Z,9.73
2018-11-27T05:00:36.196Z,9.53
2018-11-27T05:03:23.759Z,8.80
2018-11-27T05:06:11.329Z,8.63
2018-11-27T05:08:59.143Z,7.93
2018-11-27T05:11:46.708Z,9.53
2018-11-27T05:14:34.258Z,9.80
2018-11-27T05:17:21.820Z,8.87
2018-11-27T05:20:10.224Z,10.20
2018-11-27T05:22:57.851Z,9.53
2018-11-27T05:25:45.409Z,8.93
2018-11-27T05:31:26.705Z,10.27
2018-11-27T05:34:14.263Z,10.93
2018-11-27T05:37:02.136Z,9.67
2018-11-27T05:39:49.694Z,9.40
2018-11-27T05:42:37.272Z,9.27
2018-11-27T05:45:25.080Z,28.33
2018-11-27T05:48:12.649Z,11.40
2018-11-27T05:51:00.480Z,18.70
2018-11-27T05:53:48.335Z,9.60
2018-11-27T05:56:36.190Z,11.63
2018-11-27T05:59:23.748Z,11.00
2018-11-27T06:02:11.581Z,10.07
2018-11-27T06:04:59.131Z,11.27
2018-11-27T06:07:46.999Z,9.83
2018-11-27T06:10:34.626Z,10.30
2018-11-27T06:13:22.202Z,12.07
2018-11-27T06:16:09.763Z,11.67
2018-11-27T06:18:57.337Z,11.27
2018-11-27T06:21:44.969Z,14.20
2018-11-27T06:24:32.559Z,10.73
2018-11-27T06:27:20.186Z,9.50
2018-11-27T06:30:27.185Z,10.73
2018-11-27T06:33:14.772Z,11.93
2018-11-27T06:36:02.561Z,10.77
2018-11-27T06:38:50.241Z,9.47
2018-11-27T06:41:37.882Z,11.57
2018-11-27T06:44:25.489Z,9.83
2018-11-27T06:47:13.064Z,10.73
2018-11-27T06:50:00.626Z,9.67
2018-11-27T06:52:48.491Z,8.83
2018-11-27T06:55:36.163Z,11.03
2018-11-27T06:58:23.748Z,9.57
2018-11-27T07:01:11.316Z,9.83
2018-11-27T07:03:58.884Z,9.20
2018-11-27T07:06:46.726Z,10.03
2018-11-27T07:09:34.283Z,10.37
2018-11-27T07:12:21.855Z,10.37
2018-11-27T07:15:29.122Z,10.47
2018-11-27T07:18:16.743Z,9.60
2018-11-27T07:21:04.686Z,11.63
2018-11-27T07:23:52.259Z,11.10
2018-11-27T07:26:39.823Z,11.23
2018-11-27T07:29:27.404Z,13.47
2018-11-27T07:32:14.983Z,18.17
2018-11-27T07:35:02.582Z,14.27
2018-11-27T07:37:50.298Z,11.67
2018-11-27T07:40:37.855Z,10.57
2018-11-27T07:43:25.686Z,9.93
2018-11-27T07:46:13.250Z,11.13
2018-11-27T07:49:01.806Z,10.13
2018-11-27T07:51:48.381Z,9.87
2018-11-27T07:54:35.945Z,11.03
2018-11-27T07:57:23.540Z,10.80
2018-11-27T08:00:11.671Z,11.53
2018-11-27T08:02:59.309Z,11.23
2018-11-27T08:05:46.858Z,10.30
2018-11-27T08:08:34.428Z,11.77
2018-11-27T08:11:21.977Z,10.33
2018-11-27T08:14:09.590Z,12.57
2018-11-27T08:16:57.135Z,9.93
2018-11-27T08:19:44.701Z,12.33
2018-11-27T08:22:32.315Z,11.87
2018-11-27T08:25:00.377Z,10.70
2018-11-27T08:27:28.512Z,11.90
2018-11-27T08:29:56.615Z,11.70
2018-11-27T08:32:25.324Z,11.50
2018-11-27T08:34:53.421Z,12.97
2018-11-27T08:37:21.522Z,11.80
2018-11-27T08:39:49.632Z,12.70
2018-11-27T08:42:17.737Z,12.03
2018-11-27T08:44:45.857Z,11.77
2018-11-27T08:47:13.978Z,12.73
2018-11-27T08:49:42.081Z,12.07
2018-11-27T08:52:10.177Z,12.30
2018-11-27T08:54:38.299Z,12.13
2018-11-27T08:57:06.406Z,12.67
2018-11-27T08:59:34.516Z,15.13
2018-11-27T09:02:02.626Z,15.03
2018-11-27T09:04:31.099Z,13.27
2018-11-27T09:06:59.206Z,13.53
2018-11-27T09:09:27.312Z,13.67
2018-11-27T09:11:55.403Z,13.63
2018-11-27T09:14:23.517Z,12.77
2018-11-27T09:16:51.608Z,12.83
2018-11-27T09:19:19.710Z,13.13
2018-11-27T09:21:47.803Z,12.40
2018-11-27T09:24:15.971Z,12.57
2018-11-27T09:26:44.064Z,12.63
2018-11-27T09:29:12.177Z,13.70
2018-11-27T09:31:40.577Z,12.73
2018-11-27T09:34:08.714Z,15.43
2018-11-27T09:36:37.108Z,12.97
2018-11-27T09:39:08.597Z,13.33
2018-11-27T09:41:36.708Z,12.83
2018-11-27T09:44:06.086Z,12.73
2018-11-27T09:46:34.398Z,13.83
2018-11-27T09:49:02.596Z,13.10
2018-11-27T09:51:30.696Z,13.07
2018-11-27T09:53:58.828Z,13.43
2018-11-27T09:56:26.942Z,14.77
2018-11-27T09:58:55.154Z,12.37
2018-11-27T10:01:23.255Z,10.93
2018-11-27T10:03:51.376Z,10.67
2018-11-27T10:06:19.477Z,11.27
2018-11-27T10:08:47.593Z,13.03
2018-11-27T10:11:16.044Z,11.87
2018-11-27T10:13:44.170Z,12.40
2018-11-27T10:16:12.268Z,11.60
2018-11-27T10:18:40.389Z,11.73
2018-11-27T10:21:08.492Z,12.57
2018-11-27T10:23:36.617Z,11.63
2018-11-27T10:26:04.723Z,12.63
2018-11-27T10:28:32.840Z,12.30
2018-11-27T10:31:00.948Z,11.63
2018-11-27T10:33:29.048Z,12.70
2018-11-27T10:35:57.491Z,13.57
2018-11-27T10:38:26.440Z,14.10
2018-11-27T10:40:53.805Z,16.40
2018-11-27T10:43:22.210Z,12.80
2018-11-27T10:45:50.595Z,13.87
2018-11-27T10:48:18.968Z,14.00
2018-11-27T10:50:47.171Z,12.80
2018-11-27T10:53:15.268Z,11.93
2018-11-27T10:55:43.380Z,11.83
2018-11-27T10:58:11.479Z,10.83
2018-11-27T11:00:58.253Z,10.03
2018-11-27T11:03:43.961Z,10.50
2018-11-27T11:06:12.076Z,10.67
2018-11-27T11:08:40.213Z,11.60
2018-11-27T11:11:08.790Z,11.33
2018-11-27T11:13:36.885Z,11.93
2018-11-27T11:16:05.548Z,11.57
2018-11-27T11:18:33.637Z,11.93
2018-11-27T11:21:01.754Z,11.60
2018-11-27T11:23:29.855Z,11.43
2018-11-27T11:25:57.957Z,11.87
2018-11-27T11:28:28.230Z,13.30
2018-11-27T11:30:56.341Z,13.00
2018-11-27T11:33:24.446Z,11.83
2018-11-27T11:35:52.559Z,11.80
2018-11-27T11:38:20.924Z,12.27
2018-11-27T11:40:49.065Z,11.63
2018-11-27T11:43:17.537Z,12.07
2018-11-27T11:45:45.643Z,11.93
2018-11-27T11:48:14.048Z,11.63
2018-11-27T11:50:42.156Z,11.40
2018-11-27T11:53:14.715Z,10.43
2018-11-27T11:55:42.987Z,10.70
2018-11-27T11:58:11.091Z,12.63
2018-11-27T12:00:45.412Z,11.20
2018-11-27T12:03:13.509Z,10.93
2018-11-27T12:05:41.619Z,11.70
2018-11-27T12:08:09.731Z,12.20
2018-11-27T12:10:38.168Z,12.27
2018-11-27T12:13:10.312Z,12.80
2018-11-27T12:15:38.692Z,11.50
2018-11-27T12:18:07.787Z,11.37
2018-11-27T12:20:35.888Z,12.90
2018-11-27T12:23:04.647Z,12.40
2018-11-27T12:25:32.757Z,12.33
2018-11-27T12:28:00.865Z,11.37
2018-11-27T12:30:29.031Z,11.63
2018-11-27T12:32:57.134Z,12.43
2018-11-27T12:35:25.249Z,11.73
2018-11-27T12:37:53.432Z,12.60
2018-11-27T12:40:22.585Z,12.60
2018-11-27T12:42:51.309Z,12.83
2018-11-27T12:45:23.449Z,13.93
2018-11-27T12:47:52.021Z,13.50
2018-11-27T12:50:27.272Z,12.77
2018-11-27T12:52:55.369Z,14.13
2018-11-27T12:55:24.485Z,14.30
2018-11-27T12:57:52.581Z,14.47
2018-11-27T13:00:22.256Z,14.23
2018-11-27T13:02:50.525Z,13.70
2018-11-27T13:05:20.101Z,13.37
2018-11-27T13:07:48.223Z,13.27
2018-11-27T13:10:17.006Z,13.67
2018-11-27T13:12:46.323Z,14.47
2018-11-27T13:15:15.654Z,13.57
2018-11-27T13:17:43.748Z,14.27
2018-11-27T13:20:13.026Z,13.53
2018-11-27T13:22:41.146Z,14.50
2018-11-27T13:25:28.645Z,13.37
2018-11-27T13:27:56.742Z,14.83
2018-11-27T13:30:51.602Z,15.67
2018-11-27T13:33:24.481Z,14.87
2018-11-27T13:35:52.724Z,14.93
2018-11-27T13:38:21.325Z,16.83
2018-11-27T13:40:49.430Z,16.40
2018-11-27T13:43:35.682Z,16.17
2018-11-27T13:46:03.798Z,15.97
2018-11-27T13:48:31.901Z,15.83
2018-11-27T13:51:00.035Z,15.83
2018-11-27T13:53:28.131Z,17.23
2018-11-27T13:55:56.251Z,16.67
2018-11-27T13:58:24.342Z,16.17
2018-11-27T14:00:52.546Z,16.97
2018-11-27T14:03:21.001Z,16.67
2018-11-27T14:05:49.104Z,15.17
2018-11-27T14:08:17.573Z,16.33
2018-11-27T14:10:45.730Z,16.93
2018-11-27T14:13:13.823Z,15.63
2018-11-27T14:15:42.263Z,15.53
2018-11-27T14:18:10.381Z,15.70
2018-11-27T14:20:38.505Z,15.33
2018-11-27T14:23:06.909Z,15.67
2018-11-27T14:25:35.039Z,16.23
2018-11-27T14:28:03.134Z,17.90
2018-11-27T14:30:50.704Z,16.23
2018-11-27T14:33:38.263Z,16.47
2018-11-27T14:36:25.819Z,15.30
2018-11-27T14:39:13.407Z,16.80
2018-11-27T14:42:01.245Z,15.50
2018-11-27T14:44:48.825Z,15.57
2018-11-27T14:50:29.648Z,14.67
2018-11-27T14:53:17.239Z,14.47
2018-11-27T14:55:45.353Z,16.47
2018-11-27T14:58:15.085Z,16.43
2018-11-27T15:01:01.049Z,16.03
2018-11-27T15:03:48.638Z,15.53
2018-11-27T15:06:36.236Z,15.70
2018-11-27T15:09:23.832Z,16.07
2018-11-27T15:12:11.639Z,14.67
2018-11-27T15:14:59.202Z,15.17
2018-11-27T15:17:46.771Z,15.80
2018-11-27T15:20:34.698Z,14.80
2018-11-27T15:23:22.305Z,14.67
2018-11-27T15:26:10.220Z,15.13
2018-11-27T15:28:57.827Z,14.97
2018-11-27T15:31:45.503Z,16.40
2018-11-27T15:34:33.076Z,16.20
2018-11-27T15:37:20.903Z,14.93
2018-11-27T15:40:27.926Z,16.30
2018-11-27T15:43:15.541Z,16.43
2018-11-27T15:46:03.101Z,16.23
2018-11-27T15:48:50.712Z,16.87
2018-11-27T15:51:38.363Z,16.13
2018-11-27T15:54:25.961Z,15.50
2018-11-27T15:57:13.726Z,17.07
2018-11-27T16:00:01.300Z,16.13
2018-11-27T16:02:48.981Z,18.37
2018-11-27T16:05:36.844Z,18.80
2018-11-27T16:08:24.416Z,18.20
2018-11-27T16:11:11.977Z,18.30
2018-11-27T16:13:59.588Z,17.43
2018-11-27T16:16:47.201Z,16.27
2018-11-27T16:19:34.825Z,17.10
2018-11-27T16:22:22.669Z,15.80
2018-11-27T16:25:10.886Z,17.23
2018-11-27T16:27:58.532Z,15.63
2018-11-27T16:30:46.103Z,16.40
2018-11-27T16:33:33.721Z,17.60
2018-11-27T16:39:28.601Z,16.17
2018-11-27T16:42:16.185Z,15.60
2018-11-27T16:45:04.067Z,15.83
2018-11-27T16:47:51.899Z,16.03
2018-11-27T16:50:39.533Z,15.63
2018-11-27T16:53:27.173Z,15.27
2018-11-27T16:56:15.039Z,15.13
2018-11-27T16:59:03.022Z,15.87
2018-11-27T17:01:50.644Z,15.87
2018-11-27T17:04:38.241Z,14.67
2018-11-27T17:07:25.853Z,16.50
2018-11-27T17:10:13.967Z,14.27
2018-11-27T17:13:01.860Z,16.13
2018-11-27T17:15:49.660Z,15.10
2018-11-27T17:18:37.314Z,16.07
2018-11-27T17:21:24.921Z,14.30
2018-11-27T17:27:06.176Z,16.50
2018-11-27T17:29:53.769Z,14.87
2018-11-27T17:32:41.366Z,14.23
2018-11-27T17:38:36.658Z,15.00
2018-11-27T17:41:24.223Z,15.17
2018-11-27T17:44:12.878Z,16.07
2018-11-27T17:47:00.477Z,17.53
2018-11-27T17:49:48.369Z,14.43
2018-11-27T17:52:36.160Z,14.97
2018-11-27T17:55:23.760Z,16.23
2018-11-27T17:58:11.401Z,15.77
2018-11-27T18:00:58.997Z,16.10
2018-11-27T18:03:46.597Z,16.23
2018-11-27T18:06:34.688Z,16.77
2018-11-27T18:09:22.270Z,16.87
2018-11-27T18:12:10.098Z,16.10
2018-11-27T18:14:57.952Z,17.83
2018-11-27T18:17:45.613Z,17.23
2018-11-27T18:20:33.196Z,16.87
2018-11-27T18:23:20.755Z,16.27
2018-11-27T18:26:08.338Z,17.60
2018-11-27T18:28:55.992Z,17.10
2018-11-27T18:31:43.561Z,16.97
2018-11-27T18:34:31.164Z,16.33
2018-11-27T18:37:19.181Z,16.40
2018-11-27T18:40:26.241Z,17.03
2018-11-27T18:43:13.864Z,15.37
2018-11-27T18:46:01.534Z,15.67
2018-11-27T18:48:49.356Z,17.10
2018-11-27T18:51:36.951Z,13.57
2018-11-27T18:54:24.789Z,13.33
2018-11-27T18:57:12.601Z,13.53
2018-11-27T19:00:00.224Z,13.43
2018-11-27T19:02:47.828Z,12.37
2018-11-27T19:05:35.410Z,12.83
2018-11-27T19:08:23.009Z,13.00
2018-11-27T19:11:10.897Z,12.10
2018-11-27T19:13:58.522Z,12.90
2018-11-27T19:16:46.084Z,12.83
2018-11-27T19:19:33.667Z,11.27
2018-11-27T19:22:21.299Z,10.87
2018-11-27T19:25:17.618Z,12.40
2018-11-27T19:28:05.586Z,12.27
2018-11-27T19:30:53.235Z,15.17
2018-11-27T19:33:40.828Z,13.10
2018-11-27T19:36:28.399Z,15.53
2018-11-27T19:39:16.036Z,14.43
2018-11-27T19:42:03.562Z,15.10
2018-11-27T19:44:51.149Z,17.97
2018-11-27T19:47:39.042Z,16.30
2018-11-27T19:50:28.094Z,16.37
2018-11-27T19:53:15.678Z,17.90
2018-11-27T19:56:03.266Z,17.77
2018-11-27T19:58:50.850Z,18.80
2018-11-27T20:01:38.431Z,19.33
2018-11-27T20:04:26.028Z,18.53
2018-11-27T20:07:13.597Z,18.33
2018-11-27T20:10:01.187Z,19.97
2018-11-27T20:12:48.824Z,18.30
2018-11-27T20:15:36.709Z,18.07
2018-11-27T20:18:24.285Z,17.83
2018-11-27T20:21:11.870Z,16.90
2018-11-27T20:23:59.457Z,17.43
2018-11-27T20:26:47.041Z,18.40
2018-11-27T20:29:34.631Z,18.17
2018-11-27T20:32:03.090Z,18.03
2018-11-27T20:34:31.457Z,16.77
2018-11-27T20:36:59.557Z,16.10
2018-11-27T20:39:28.028Z,16.33
2018-11-27T20:41:56.473Z,17.40
2018-11-27T20:44:24.585Z,16.17
2018-11-27T20:46:52.707Z,16.07
2018-11-27T20:49:20.853Z,15.90
2018-11-27T20:51:48.957Z,16.03
2018-11-27T20:54:17.054Z,24.07
2018-11-27T20:56:45.937Z,16.07
2018-11-27T20:59:14.035Z,16.07
2018-11-27T21:01:42.137Z,14.87
2018-11-27T21:04:10.224Z,14.63
2018-11-27T21:06:38.583Z,16.00
2018-11-27T21:09:08.653Z,15.30
2018-11-27T21:11:36.768Z,15.90
2018-11-27T21:14:04.896Z,16.37
2018-11-27T21:16:33.260Z,15.77
2018-11-27T21:19:01.666Z,15.17
2018-11-27T21:21:29.772Z,16.33
2018-11-27T21:23:57.904Z,16.33
2018-11-27T21:27:00.327Z,17.83
2018-11-27T21:29:28.456Z,18.33
2018-11-27T21:31:56.568Z,16.20
2018-11-27T21:34:24.682Z,18.27
2018-11-27T21:36:52.792Z,17.67
2018-11-27T21:39:20.905Z,17.03
2018-11-27T21:41:49.044Z,16.60
2018-11-27T21:44:17.154Z,16.73
2018-11-27T21:46:45.266Z,16.47
2018-11-27T21:49:13.376Z,17.83
2018-11-27T21:51:41.496Z,17.33
2018-11-27T21:54:09.596Z,18.73
2018-11-27T21:56:37.700Z,17.97
2018-11-27T21:59:05.868Z,20.13
2018-11-27T22:01:34.546Z,18.73
2018-11-27T22:04:02.088Z,17.47
2018-11-27T22:06:30.208Z,17.53
2018-11-27T22:08:58.337Z,18.77
2018-11-27T22:11:26.458Z,18.53
2018-11-27T22:13:54.565Z,20.47
2018-11-27T22:16:22.680Z,19.03
2018-11-27T22:18:50.780Z,18.50
2018-11-27T22:21:18.900Z,19.10
2018-11-27T22:23:47.007Z,19.47
2018-11-27T22:26:15.116Z,19.83
2018-11-27T22:28:43.228Z,19.43
2018-11-27T22:31:11.359Z,18.87
2018-11-27T22:33:39.464Z,18.30
2018-11-27T22:36:07.576Z,19.07
2018-11-27T22:38:35.673Z,19.40
2018-11-27T22:41:03.797Z,19.73
2018-11-27T22:43:31.902Z,19.63
2018-11-27T22:46:00.024Z,18.53
2018-11-27T22:48:28.121Z,18.97
2018-11-27T22:50:56.231Z,19.47
2018-11-27T22:53:24.347Z,19.03
2018-11-27T22:55:52.452Z,20.13
2018-11-27T22:58:20.560Z,20.37
2018-11-27T23:00:51.312Z,19.73
2018-11-27T23:03:19.632Z,19.00
2018-11-27T23:05:47.736Z,19.97
2018-11-27T23:08:15.838Z,19.47
2018-11-27T23:10:44.996Z,18.03
2018-11-27T23:13:13.097Z,19.53
2018-11-27T23:15:41.209Z,19.23
2018-11-27T23:18:09.321Z,18.30
2018-11-27T23:20:37.424Z,19.33
2018-11-27T23:23:05.805Z,17.80
2018-11-27T23:25:33.907Z,17.80
2018-11-27T23:28:02.092Z,17.20
2018-11-27T23:30:30.196Z,19.80
2018-11-27T23:32:58.312Z,18.67
2018-11-27T23:35:26.428Z,18.90
2018-11-27T23:37:54.545Z,19.03
2018-11-27T23:40:22.719Z,19.50
2018-11-27T23:42:50.922Z,19.17
2018-11-27T23:45:20.471Z,19.80
2018-11-27T23:47:48.596Z,18.03
2018-11-27T23:50:18.672Z,18.97
2018-11-27T23:52:46.889Z,18.37
2018-11-27T23:55:15.624Z,18.57
2018-11-27T23:57:44.009Z,18.57
